sensor_id;sensor_type;location;lat;lon;timestamp;pressure;altitude;pressure_sealevel;temperature;humidity
12676;BME280;63820;65.654;21.944;2023-04-27T00:00:48;100299.47;;;3.88;100.00
12676;BME280;63820;65.654;21.944;2023-04-27T00:03:31;100302.81;;;3.93;100.00
12676;BME280;63820;65.654;21.944;2023-04-27T00:06:15;100299.44;;;3.89;100.00
12676;BME280;63820;65.654;21.944;2023-04-27T00:08:59;100296.09;;;3.86;100.00
12676;BME280;63820;65.654;21.944;2023-04-27T00:11:44;100296.22;;;3.78;100.00
12676;BME280;63820;65.654;21.944;2023-04-27T00:14:28;100299.63;;;3.80;100.00
12676;BME280;63820;65.654;21.944;2023-04-27T00:17:12;100310.03;;;3.74;100.00
12676;BME280;63820;65.654;21.944;2023-04-27T00:19:56;100312.63;;;3.73;100.00
12676;BME280;63820;65.654;21.944;2023-04-27T00:22:41;100316.91;;;3.72;100.00
12676;BME280;63820;65.654;21.944;2023-04-27T00:25:26;100308.59;;;3.58;100.00
12676;BME280;63820;65.654;21.944;2023-04-27T00:28:10;100318.03;;;3.57;100.00
12676;BME280;63820;65.654;21.944;2023-04-27T00:30:54;100316.41;;;3.52;100.00
12676;BME280;63820;65.654;21.944;2023-04-27T00:33:38;100326.75;;;3.49;100.00
12676;BME280;63820;65.654;21.944;2023-04-27T00:36:22;100324.28;;;3.43;100.00
12676;BME280;63820;65.654;21.944;2023-04-27T00:39:06;100313.28;;;3.35;100.00
12676;BME280;63820;65.654;21.944;2023-04-27T00:41:51;100311.66;;;3.29;100.00
12676;BME280;63820;65.654;21.944;2023-04-27T00:44:36;100329.66;;;3.29;100.00
12676;BME280;63820;65.654;21.944;2023-04-27T00:47:20;100325.47;;;3.22;100.00
12676;BME280;63820;65.654;21.944;2023-04-27T00:50:04;100330.81;;;3.11;100.00
12676;BME280;63820;65.654;21.944;2023-04-27T00:52:53;100339.38;;;3.12;100.00
12676;BME280;63820;65.654;21.944;2023-04-27T00:55:37;100335.97;;;3.10;100.00
12676;BME280;63820;65.654;21.944;2023-04-27T00:58:21;100333.56;;;2.99;100.00
12676;BME280;63820;65.654;21.944;2023-04-27T01:01:06;100324.28;;;2.90;100.00
12676;BME280;63820;65.654;21.944;2023-04-27T01:03:50;100318.28;;;2.90;100.00
12676;BME280;63820;65.654;21.944;2023-04-27T01:06:34;100311.53;;;2.83;100.00
12676;BME280;63820;65.654;21.944;2023-04-27T01:09:18;100305.53;;;2.84;100.00
12676;BME280;63820;65.654;21.944;2023-04-27T01:12:02;100308.94;;;2.84;100.00
12676;BME280;63820;65.654;21.944;2023-04-27T01:14:47;100309.78;;;2.86;100.00
12676;BME280;63820;65.654;21.944;2023-04-27T01:17:31;100309.09;;;2.74;100.00
12676;BME280;63820;65.654;21.944;2023-04-27T01:20:15;100305.63;;;2.76;100.00
12676;BME280;63820;65.654;21.944;2023-04-27T01:22:59;100315.88;;;2.79;100.00
12676;BME280;63820;65.654;21.944;2023-04-27T01:25:43;100315.22;;;2.63;100.00
12676;BME280;63820;65.654;21.944;2023-04-27T01:28:27;100314.28;;;2.69;100.00
12676;BME280;63820;65.654;21.944;2023-04-27T01:31:12;100305.63;;;2.78;100.00
12676;BME280;63820;65.654;21.944;2023-04-27T01:33:56;100301.38;;;2.75;100.00
12676;BME280;63820;65.654;21.944;2023-04-27T01:36:40;100310.72;;;2.79;100.00
12676;BME280;63820;65.654;21.944;2023-04-27T01:39:24;100316.81;;;2.74;100.00
12676;BME280;63820;65.654;21.944;2023-04-27T01:42:09;100315.00;;;2.80;100.00
12676;BME280;63820;65.654;21.944;2023-04-27T01:44:53;100321.75;;;2.86;100.00
12676;BME280;63820;65.654;21.944;2023-04-27T01:47:37;100338.97;;;2.81;100.00
12676;BME280;63820;65.654;21.944;2023-04-27T01:50:22;100364.69;;;2.79;100.00
12676;BME280;63820;65.654;21.944;2023-04-27T01:53:06;100374.19;;;2.71;100.00
12676;BME280;63820;65.654;21.944;2023-04-27T01:55:50;100354.41;;;2.78;100.00
12676;BME280;63820;65.654;21.944;2023-04-27T01:58:34;100362.16;;;2.75;100.00
12676;BME280;63820;65.654;21.944;2023-04-27T02:01:19;100356.13;;;2.77;100.00
12676;BME280;63820;65.654;21.944;2023-04-27T02:04:03;100348.25;;;2.89;100.00
12676;BME280;63820;65.654;21.944;2023-04-27T02:06:48;100359.50;;;2.81;100.00
12676;BME280;63820;65.654;21.944;2023-04-27T02:09:32;100361.28;;;2.76;100.00
12676;BME280;63820;65.654;21.944;2023-04-27T02:12:16;100351.94;;;2.72;100.00
12676;BME280;63820;65.654;21.944;2023-04-27T02:15:00;100359.22;;;3.02;100.00
12676;BME280;63820;65.654;21.944;2023-04-27T02:17:44;100372.16;;;2.96;100.00
12676;BME280;63820;65.654;21.944;2023-04-27T02:20:30;100376.53;;;2.89;100.00
12676;BME280;63820;65.654;21.944;2023-04-27T02:23:15;100368.59;;;3.05;100.00
12676;BME280;63820;65.654;21.944;2023-04-27T02:25:59;100366.19;;;2.94;100.00
12676;BME280;63820;65.654;21.944;2023-04-27T02:28:44;100351.44;;;3.07;100.00
12676;BME280;63820;65.654;21.944;2023-04-27T02:31:29;100357.44;;;3.07;100.00
12676;BME280;63820;65.654;21.944;2023-04-27T02:34:13;100354.66;;;3.18;100.00
12676;BME280;63820;65.654;21.944;2023-04-27T02:36:57;100346.19;;;3.13;100.00
12676;BME280;63820;65.654;21.944;2023-04-27T02:39:41;100354.53;;;3.27;100.00
12676;BME280;63820;65.654;21.944;2023-04-27T02:42:25;100350.22;;;3.29;100.00
12676;BME280;63820;65.654;21.944;2023-04-27T02:45:10;100348.50;;;3.29;100.00
12676;BME280;63820;65.654;21.944;2023-04-27T02:47:54;100338.22;;;3.29;100.00
12676;BME280;63820;65.654;21.944;2023-04-27T02:50:42;100336.47;;;3.32;100.00
12676;BME280;63820;65.654;21.944;2023-04-27T02:53:26;100317.66;;;3.29;100.00
12676;BME280;63820;65.654;21.944;2023-04-27T02:56:10;100335.56;;;3.34;100.00
12676;BME280;63820;65.654;21.944;2023-04-27T02:58:54;100339.09;;;3.28;100.00
12676;BME280;63820;65.654;21.944;2023-04-27T03:01:39;100334.63;;;3.40;100.00
12676;BME280;63820;65.654;21.944;2023-04-27T03:04:23;100340.72;;;3.34;100.00
12676;BME280;63820;65.654;21.944;2023-04-27T03:07:07;100334.53;;;3.46;100.00
12676;BME280;63820;65.654;21.944;2023-04-27T03:09:51;100335.38;;;3.46;100.00
12676;BME280;63820;65.654;21.944;2023-04-27T03:12:35;100332.03;;;3.40;100.00
12676;BME280;63820;65.654;21.944;2023-04-27T03:15:19;100331.19;;;3.41;100.00
12676;BME280;63820;65.654;21.944;2023-04-27T03:18:03;100347.31;;;3.50;100.00
12676;BME280;63820;65.654;21.944;2023-04-27T03:20:47;100355.09;;;3.46;100.00
12676;BME280;63820;65.654;21.944;2023-04-27T03:23:32;100372.91;;;3.56;100.00
12676;BME280;63820;65.654;21.944;2023-04-27T03:26:15;100365.13;;;3.61;100.00
12676;BME280;63820;65.654;21.944;2023-04-27T03:29:00;100377.16;;;3.60;100.00
12676;BME280;63820;65.654;21.944;2023-04-27T03:31:44;100382.22;;;3.65;100.00
12676;BME280;63820;65.654;21.944;2023-04-27T03:34:29;100370.22;;;3.64;100.00
12676;BME280;63820;65.654;21.944;2023-04-27T03:37:13;100371.09;;;3.63;100.00
12676;BME280;63820;65.654;21.944;2023-04-27T03:39:57;100366.00;;;3.60;100.00
12676;BME280;63820;65.654;21.944;2023-04-27T03:42:41;100366.78;;;3.65;100.00
12676;BME280;63820;65.654;21.944;2023-04-27T03:45:25;100376.94;;;3.73;100.00
12676;BME280;63820;65.654;21.944;2023-04-27T03:48:09;100365.66;;;3.80;100.00
12676;BME280;63820;65.654;21.944;2023-04-27T03:50:53;100370.69;;;3.87;100.00
12676;BME280;63820;65.654;21.944;2023-04-27T03:53:37;100361.22;;;3.89;100.00
12676;BME280;63820;65.654;21.944;2023-04-27T03:56:21;100359.38;;;3.96;100.00
12676;BME280;63820;65.654;21.944;2023-04-27T03:59:05;100360.16;;;4.01;100.00
12676;BME280;63820;65.654;21.944;2023-04-27T04:01:49;100377.31;;;4.01;100.00
12676;BME280;63820;65.654;21.944;2023-04-27T04:04:34;100379.13;;;3.96;100.00
12676;BME280;63820;65.654;21.944;2023-04-27T04:07:18;100394.56;;;3.96;100.00
12676;BME280;63820;65.654;21.944;2023-04-27T04:10:04;100414.34;;;3.92;100.00
12676;BME280;63820;65.654;21.944;2023-04-27T04:12:48;100411.03;;;3.85;100.00
12676;BME280;63820;65.654;21.944;2023-04-27T04:15:32;100408.38;;;3.90;100.00
12676;BME280;63820;65.654;21.944;2023-04-27T04:18:16;100387.66;;;3.98;100.00
12676;BME280;63820;65.654;21.944;2023-04-27T04:21:01;100390.91;;;4.07;100.00
12676;BME280;63820;65.654;21.944;2023-04-27T04:23:45;100401.22;;;4.07;100.00
12676;BME280;63820;65.654;21.944;2023-04-27T04:26:29;100378.06;;;4.06;100.00
12676;BME280;63820;65.654;21.944;2023-04-27T04:29:14;100375.63;;;4.00;100.00
12676;BME280;63820;65.654;21.944;2023-04-27T04:31:58;100382.38;;;4.05;100.00
12676;BME280;63820;65.654;21.944;2023-04-27T04:34:43;100380.75;;;4.00;100.00
12676;BME280;63820;65.654;21.944;2023-04-27T04:37:27;100378.00;;;4.10;100.00
12676;BME280;63820;65.654;21.944;2023-04-27T04:40:11;100385.56;;;4.16;100.00
12676;BME280;63820;65.654;21.944;2023-04-27T04:42:55;100402.59;;;4.23;100.00
12676;BME280;63820;65.654;21.944;2023-04-27T04:45:39;100390.47;;;4.30;100.00
12676;BME280;63820;65.654;21.944;2023-04-27T04:48:23;100383.63;;;4.27;100.00
12676;BME280;63820;65.654;21.944;2023-04-27T04:51:08;100384.44;;;4.31;100.00
12676;BME280;63820;65.654;21.944;2023-04-27T04:53:52;100388.00;;;4.24;100.00
12676;BME280;63820;65.654;21.944;2023-04-27T04:56:36;100377.75;;;4.21;100.00
12676;BME280;63820;65.654;21.944;2023-04-27T04:59:20;100377.91;;;4.15;100.00
12676;BME280;63820;65.654;21.944;2023-04-27T05:02:05;100376.22;;;4.14;100.00
12676;BME280;63820;65.654;21.944;2023-04-27T05:04:48;100388.13;;;4.18;100.00
12676;BME280;63820;65.654;21.944;2023-04-27T05:07:35;100390.00;;;4.10;100.00
12676;BME280;63820;65.654;21.944;2023-04-27T05:10:19;100389.22;;;4.06;100.00
12676;BME280;63820;65.654;21.944;2023-04-27T05:13:03;100410.03;;;3.94;100.00
12676;BME280;63820;65.654;21.944;2023-04-27T05:15:47;100407.63;;;3.83;100.00
12676;BME280;63820;65.654;21.944;2023-04-27T05:18:33;100414.47;;;3.84;100.00
12676;BME280;63820;65.654;21.944;2023-04-27T05:21:19;100409.28;;;3.87;100.00
12676;BME280;63820;65.654;21.944;2023-04-27T05:24:05;100411.88;;;3.86;100.00
12676;BME280;63820;65.654;21.944;2023-04-27T05:26:49;100426.41;;;3.88;100.00
12676;BME280;63820;65.654;21.944;2023-04-27T05:29:33;100413.41;;;3.96;100.00
12676;BME280;63820;65.654;21.944;2023-04-27T05:32:18;100427.84;;;4.06;100.00
12676;BME280;63820;65.654;21.944;2023-04-27T05:35:02;100432.06;;;4.10;100.00
12676;BME280;63820;65.654;21.944;2023-04-27T05:37:47;100429.31;;;4.18;100.00
12676;BME280;63820;65.654;21.944;2023-04-27T05:40:31;100441.50;;;4.10;100.00
12676;BME280;63820;65.654;21.944;2023-04-27T05:43:15;100442.94;;;4.23;100.00
12676;BME280;63820;65.654;21.944;2023-04-27T05:45:59;100438.41;;;4.37;100.00
12676;BME280;63820;65.654;21.944;2023-04-27T05:48:43;100440.88;;;4.43;100.00
12676;BME280;63820;65.654;21.944;2023-04-27T05:51:27;100426.28;;;4.42;100.00
12676;BME280;63820;65.654;21.944;2023-04-27T05:54:11;100436.00;;;4.28;100.00
12676;BME280;63820;65.654;21.944;2023-04-27T05:56:55;100433.56;;;4.20;100.00
12676;BME280;63820;65.654;21.944;2023-04-27T05:59:40;100412.94;;;4.22;100.00
12676;BME280;63820;65.654;21.944;2023-04-27T06:02:24;100418.00;;;4.26;100.00
12676;BME280;63820;65.654;21.944;2023-04-27T06:05:08;100416.22;;;4.30;100.00
12676;BME280;63820;65.654;21.944;2023-04-27T06:07:53;100406.41;;;4.49;100.00
12676;BME280;63820;65.654;21.944;2023-04-27T06:10:37;100414.06;;;4.53;100.00
12676;BME280;63820;65.654;21.944;2023-04-27T06:13:21;100412.13;;;4.65;100.00
12676;BME280;63820;65.654;21.944;2023-04-27T06:16:06;100437.72;;;4.72;100.00
12676;BME280;63820;65.654;21.944;2023-04-27T06:18:51;100458.50;;;4.65;100.00
12676;BME280;63820;65.654;21.944;2023-04-27T06:21:35;100466.56;;;4.46;100.00
12676;BME280;63820;65.654;21.944;2023-04-27T06:24:19;100469.66;;;4.65;100.00
12676;BME280;63820;65.654;21.944;2023-04-27T06:27:04;100457.72;;;4.59;100.00
12676;BME280;63820;65.654;21.944;2023-04-27T06:29:49;100467.13;;;4.62;100.00
12676;BME280;63820;65.654;21.944;2023-04-27T06:32:33;100469.22;;;4.42;100.00
12676;BME280;63820;65.654;21.944;2023-04-27T06:35:17;100482.00;;;4.46;100.00
12676;BME280;63820;65.654;21.944;2023-04-27T06:38:01;100471.59;;;4.52;100.00
12676;BME280;63820;65.654;21.944;2023-04-27T06:40:49;100463.47;;;4.74;100.00
12676;BME280;63820;65.654;21.944;2023-04-27T06:43:34;100476.09;;;4.86;100.00
12676;BME280;63820;65.654;21.944;2023-04-27T06:46:19;100464.00;;;4.89;100.00
12676;BME280;63820;65.654;21.944;2023-04-27T06:49:03;100466.56;;;4.91;100.00
12676;BME280;63820;65.654;21.944;2023-04-27T06:51:48;100458.84;;;4.89;100.00
12676;BME280;63820;65.654;21.944;2023-04-27T06:54:32;100463.72;;;5.03;100.00
12676;BME280;63820;65.654;21.944;2023-04-27T06:57:16;100477.50;;;5.02;100.00
12676;BME280;63820;65.654;21.944;2023-04-27T07:00:01;100476.78;;;4.96;100.00
12676;BME280;63820;65.654;21.944;2023-04-27T07:02:45;100466.47;;;4.96;100.00
12676;BME280;63820;65.654;21.944;2023-04-27T07:05:29;100477.56;;;4.99;100.00
12676;BME280;63820;65.654;21.944;2023-04-27T07:08:13;100493.91;;;4.98;100.00
12676;BME280;63820;65.654;21.944;2023-04-27T07:10:57;100492.00;;;5.08;100.00
12676;BME280;63820;65.654;21.944;2023-04-27T07:13:42;100481.97;;;4.94;100.00
12676;BME280;63820;65.654;21.944;2023-04-27T07:16:26;100489.28;;;5.14;100.00
12676;BME280;63820;65.654;21.944;2023-04-27T07:19:10;100498.69;;;5.16;100.00
12676;BME280;63820;65.654;21.944;2023-04-27T07:21:55;100501.59;;;5.01;100.00
12676;BME280;63820;65.654;21.944;2023-04-27T07:24:39;100511.19;;;4.93;100.00
12676;BME280;63820;65.654;21.944;2023-04-27T07:27:23;100499.09;;;4.97;100.00
12676;BME280;63820;65.654;21.944;2023-04-27T07:30:09;100508.69;;;4.90;100.00
12676;BME280;63820;65.654;21.944;2023-04-27T07:32:56;100508.78;;;4.84;100.00
12676;BME280;63820;65.654;21.944;2023-04-27T07:35:41;100527.66;;;4.86;100.00
12676;BME280;63820;65.654;21.944;2023-04-27T07:38:25;100526.69;;;4.91;100.00
12676;BME280;63820;65.654;21.944;2023-04-27T07:41:09;100524.78;;;5.01;100.00
12676;BME280;63820;65.654;21.944;2023-04-27T07:43:53;100527.50;;;4.95;100.00
12676;BME280;63820;65.654;21.944;2023-04-27T07:46:37;100543.28;;;4.78;100.00
12676;BME280;63820;65.654;21.944;2023-04-27T07:49:22;100555.34;;;4.75;100.00
12676;BME280;63820;65.654;21.944;2023-04-27T07:52:06;100530.47;;;4.74;100.00
12676;BME280;63820;65.654;21.944;2023-04-27T07:54:50;100516.84;;;4.67;100.00
12676;BME280;63820;65.654;21.944;2023-04-27T07:57:35;100501.56;;;4.58;100.00
12676;BME280;63820;65.654;21.944;2023-04-27T08:00:20;100508.47;;;4.56;100.00
12676;BME280;63820;65.654;21.944;2023-04-27T08:03:04;100503.09;;;4.68;100.00
12676;BME280;63820;65.654;21.944;2023-04-27T08:05:50;100504.66;;;4.75;100.00
12676;BME280;63820;65.654;21.944;2023-04-27T08:08:34;100526.03;;;4.82;100.00
12676;BME280;63820;65.654;21.944;2023-04-27T08:11:18;100520.03;;;4.80;100.00
12676;BME280;63820;65.654;21.944;2023-04-27T08:14:02;100523.63;;;4.71;100.00
12676;BME280;63820;65.654;21.944;2023-04-27T08:16:46;100539.97;;;4.70;100.00
12676;BME280;63820;65.654;21.944;2023-04-27T08:19:30;100549.56;;;4.62;100.00
12676;BME280;63820;65.654;21.944;2023-04-27T08:22:14;100561.56;;;4.65;100.00
12676;BME280;63820;65.654;21.944;2023-04-27T08:24:59;100567.75;;;4.54;100.00
12676;BME280;63820;65.654;21.944;2023-04-27T08:27:43;100574.56;;;4.57;100.00
12676;BME280;63820;65.654;21.944;2023-04-27T08:30:27;100583.91;;;4.64;100.00
12676;BME280;63820;65.654;21.944;2023-04-27T08:33:11;100567.88;;;4.47;100.00
12676;BME280;63820;65.654;21.944;2023-04-27T08:35:56;100561.00;;;4.47;100.00
12676;BME280;63820;65.654;21.944;2023-04-27T08:38:40;100573.03;;;4.47;100.00
12676;BME280;63820;65.654;21.944;2023-04-27T08:41:24;100572.41;;;4.33;100.00
12676;BME280;63820;65.654;21.944;2023-04-27T08:44:08;100576.59;;;4.38;100.00
12676;BME280;63820;65.654;21.944;2023-04-27T08:46:53;100575.91;;;4.27;100.00
12676;BME280;63820;65.654;21.944;2023-04-27T08:49:37;100585.19;;;4.37;100.00
12676;BME280;63820;65.654;21.944;2023-04-27T08:52:21;100580.94;;;4.36;100.00
12676;BME280;63820;65.654;21.944;2023-04-27T08:55:06;100573.81;;;4.50;100.00
12676;BME280;63820;65.654;21.944;2023-04-27T08:57:58;100563.38;;;4.59;100.00
12676;BME280;63820;65.654;21.944;2023-04-27T09:00:44;100557.22;;;4.67;100.00
12676;BME280;63820;65.654;21.944;2023-04-27T09:03:28;100592.19;;;4.81;100.00
12676;BME280;63820;65.654;21.944;2023-04-27T09:06:13;100585.25;;;4.85;100.00
12676;BME280;63820;65.654;21.944;2023-04-27T09:08:59;100599.75;;;4.90;100.00
12676;BME280;63820;65.654;21.944;2023-04-27T09:11:43;100597.69;;;5.09;100.00
12676;BME280;63820;65.654;21.944;2023-04-27T09:14:28;100607.16;;;5.09;100.00
12676;BME280;63820;65.654;21.944;2023-04-27T09:17:13;100607.94;;;5.12;100.00
12676;BME280;63820;65.654;21.944;2023-04-27T09:20:08;100606.00;;;5.22;100.00
12676;BME280;63820;65.654;21.944;2023-04-27T09:22:53;100610.59;;;5.08;100.00
12676;BME280;63820;65.654;21.944;2023-04-27T09:25:39;100620.22;;;5.00;100.00
12676;BME280;63820;65.654;21.944;2023-04-27T09:28:24;100627.19;;;4.95;100.00
12676;BME280;63820;65.654;21.944;2023-04-27T09:31:10;100607.56;;;4.86;100.00
12676;BME280;63820;65.654;21.944;2023-04-27T09:33:55;100611.78;;;4.90;100.00
12676;BME280;63820;65.654;21.944;2023-04-27T09:36:39;100617.66;;;4.98;100.00
12676;BME280;63820;65.654;21.944;2023-04-27T09:39:23;100620.56;;;4.80;100.00
12676;BME280;63820;65.654;21.944;2023-04-27T09:42:08;100616.28;;;4.79;100.00
12676;BME280;63820;65.654;21.944;2023-04-27T09:44:54;100616.16;;;4.86;100.00
12676;BME280;63820;65.654;21.944;2023-04-27T09:47:38;100604.72;;;5.01;100.00
12676;BME280;63820;65.654;21.944;2023-04-27T09:50:24;100616.84;;;4.96;100.00
12676;BME280;63820;65.654;21.944;2023-04-27T09:53:11;100617.66;;;4.98;100.00
12676;BME280;63820;65.654;21.944;2023-04-27T09:56:39;100622.97;;;4.89;100.00
12676;BME280;63820;65.654;21.944;2023-04-27T10:02:15;100627.41;;;4.81;100.00
12676;BME280;63820;65.654;21.944;2023-04-27T10:08:08;100631.44;;;4.45;100.00
12676;BME280;63820;65.654;21.944;2023-04-27T10:10:53;100619.47;;;4.42;100.00
12676;BME280;63820;65.654;21.944;2023-04-27T10:13:38;100626.16;;;4.52;100.00
12676;BME280;63820;65.654;21.944;2023-04-27T10:16:21;100629.56;;;4.54;100.00
12676;BME280;63820;65.654;21.944;2023-04-27T10:19:08;100627.94;;;4.49;100.00
12676;BME280;63820;65.654;21.944;2023-04-27T10:21:57;100648.69;;;4.40;100.00
12676;BME280;63820;65.654;21.944;2023-04-27T10:24:48;100636.63;;;4.43;100.00
12676;BME280;63820;65.654;21.944;2023-04-27T10:27:38;100643.59;;;4.37;100.00
12676;BME280;63820;65.654;21.944;2023-04-27T10:30:24;100612.94;;;4.20;100.00
12676;BME280;63820;65.654;21.944;2023-04-27T10:33:10;100612.50;;;4.47;100.00
12676;BME280;63820;65.654;21.944;2023-04-27T10:35:57;100624.38;;;4.57;100.00
12676;BME280;63820;65.654;21.944;2023-04-27T10:38:41;100623.31;;;4.69;100.00
12676;BME280;63820;65.654;21.944;2023-04-27T10:41:33;100627.47;;;4.78;100.00
12676;BME280;63820;65.654;21.944;2023-04-27T10:44:28;100624.72;;;4.88;100.00
12676;BME280;63820;65.654;21.944;2023-04-27T10:47:15;100611.63;;;4.99;100.00
12676;BME280;63820;65.654;21.944;2023-04-27T10:50:03;100623.50;;;5.08;100.00
12676;BME280;63820;65.654;21.944;2023-04-27T10:52:48;100618.19;;;5.15;100.00
12676;BME280;63820;65.654;21.944;2023-04-27T10:55:33;100637.13;;;5.14;100.00
12676;BME280;63820;65.654;21.944;2023-04-27T10:58:21;100636.41;;;5.06;100.00
12676;BME280;63820;65.654;21.944;2023-04-27T11:01:07;100645.91;;;5.04;100.00
12676;BME280;63820;65.654;21.944;2023-04-27T11:03:55;100642.53;;;5.01;100.00
12676;BME280;63820;65.654;21.944;2023-04-27T11:06:41;100654.56;;;5.00;100.00
12676;BME280;63820;65.654;21.944;2023-04-27T11:09:26;100658.19;;;4.90;100.00
12676;BME280;63820;65.654;21.944;2023-04-27T11:12:11;100672.09;;;4.80;100.00
12676;BME280;63820;65.654;21.944;2023-04-27T11:14:57;100687.72;;;4.71;100.00
12676;BME280;63820;65.654;21.944;2023-04-27T11:17:41;100686.16;;;4.60;100.00
12676;BME280;63820;65.654;21.944;2023-04-27T11:20:25;100680.97;;;4.64;100.00
12676;BME280;63820;65.654;21.944;2023-04-27T11:23:10;100686.47;;;4.39;100.00
12676;BME280;63820;65.654;21.944;2023-04-27T11:25:55;100679.25;;;4.06;100.00
12676;BME280;63820;65.654;21.944;2023-04-27T11:28:40;100685.50;;;3.86;100.00
12676;BME280;63820;65.654;21.944;2023-04-27T11:31:25;100676.69;;;4.06;100.00
12676;BME280;63820;65.654;21.944;2023-04-27T11:34:14;100689.00;;;3.82;100.00
12676;BME280;63820;65.654;21.944;2023-04-27T11:37:03;100692.38;;;3.86;100.00
12676;BME280;63820;65.654;21.944;2023-04-27T11:39:50;100700.16;;;3.80;100.00
12676;BME280;63820;65.654;21.944;2023-04-27T11:42:34;100704.44;;;3.82;100.00
12676;BME280;63820;65.654;21.944;2023-04-27T11:45:24;100706.50;;;3.50;100.00
12676;BME280;63820;65.654;21.944;2023-04-27T11:48:15;100704.78;;;3.50;100.00
12676;BME280;63820;65.654;21.944;2023-04-27T11:50:59;100708.94;;;3.62;100.00
12676;BME280;63820;65.654;21.944;2023-04-27T11:53:46;100721.81;;;3.62;100.00
12676;BME280;63820;65.654;21.944;2023-04-27T11:56:38;100722.47;;;3.79;100.00
12676;BME280;63820;65.654;21.944;2023-04-27T11:59:23;100735.25;;;3.87;100.00
12676;BME280;63820;65.654;21.944;2023-04-27T12:02:08;100736.91;;;3.92;100.00
12676;BME280;63820;65.654;21.944;2023-04-27T12:04:52;100745.44;;;3.98;100.00
12676;BME280;63820;65.654;21.944;2023-04-27T12:07:37;100750.47;;;4.05;100.00
12676;BME280;63820;65.654;21.944;2023-04-27T12:10:21;100764.03;;;4.16;100.00
12676;BME280;63820;65.654;21.944;2023-04-27T12:13:05;100771.00;;;4.11;100.00
12676;BME280;63820;65.654;21.944;2023-04-27T12:15:49;100785.66;;;4.05;100.00
12676;BME280;63820;65.654;21.944;2023-04-27T12:18:34;100769.25;;;4.15;100.00
12676;BME280;63820;65.654;21.944;2023-04-27T12:21:18;100769.94;;;4.24;100.00
12676;BME280;63820;65.654;21.944;2023-04-27T12:24:02;100785.41;;;4.24;100.00
12676;BME280;63820;65.654;21.944;2023-04-27T12:26:47;100782.91;;;4.17;100.00
12676;BME280;63820;65.654;21.944;2023-04-27T12:29:31;100782.06;;;4.16;100.00
12676;BME280;63820;65.654;21.944;2023-04-27T12:32:16;100791.47;;;4.20;100.00
12676;BME280;63820;65.654;21.944;2023-04-27T12:35:00;100793.53;;;3.92;100.00
12676;BME280;63820;65.654;21.944;2023-04-27T12:37:44;100795.47;;;3.72;100.00
12676;BME280;63820;65.654;21.944;2023-04-27T12:40:28;100806.94;;;3.36;100.00
12676;BME280;63820;65.654;21.944;2023-04-27T12:43:12;100788.13;;;3.31;100.00
12676;BME280;63820;65.654;21.944;2023-04-27T12:45:56;100797.56;;;3.31;100.00
12676;BME280;63820;65.654;21.944;2023-04-27T12:48:40;100789.84;;;3.29;100.00
12676;BME280;63820;65.654;21.944;2023-04-27T12:51:26;100785.53;;;3.33;100.00
12676;BME280;63820;65.654;21.944;2023-04-27T12:54:11;100800.75;;;3.55;100.00
12676;BME280;63820;65.654;21.944;2023-04-27T12:56:55;100802.28;;;3.76;100.00
12676;BME280;63820;65.654;21.944;2023-04-27T12:59:40;100798.75;;;3.86;100.00
12676;BME280;63820;65.654;21.944;2023-04-27T13:02:25;100796.84;;;4.04;100.00
12676;BME280;63820;65.654;21.944;2023-04-27T13:05:10;100783.72;;;4.20;100.00
12676;BME280;63820;65.654;21.944;2023-04-27T13:07:54;100783.53;;;4.37;100.00
12676;BME280;63820;65.654;21.944;2023-04-27T13:10:39;100774.88;;;4.43;100.00
12676;BME280;63820;65.654;21.944;2023-04-27T13:13:24;100780.88;;;4.42;100.00
12676;BME280;63820;65.654;21.944;2023-04-27T13:16:08;100785.97;;;4.48;100.00
12676;BME280;63820;65.654;21.944;2023-04-27T13:18:52;100786.81;;;4.48;100.00
12676;BME280;63820;65.654;21.944;2023-04-27T13:21:38;100784.16;;;4.54;100.00
12676;BME280;63820;65.654;21.944;2023-04-27T13:24:22;100783.13;;;4.68;100.00
12676;BME280;63820;65.654;21.944;2023-04-27T13:27:07;100782.03;;;4.84;100.00
12676;BME280;63820;65.654;21.944;2023-04-27T13:29:51;100785.94;;;5.08;100.00
12676;BME280;63820;65.654;21.944;2023-04-27T13:32:35;100784.69;;;5.30;100.00
12676;BME280;63820;65.654;21.944;2023-04-27T13:35:19;100777.56;;;5.44;100.00
12676;BME280;63820;65.654;21.944;2023-04-27T13:38:04;100782.72;;;5.46;100.00
12676;BME280;63820;65.654;21.944;2023-04-27T13:40:48;100774.09;;;5.47;100.00
12676;BME280;63820;65.654;21.944;2023-04-27T13:43:32;100770.59;;;5.51;100.00
12676;BME280;63820;65.654;21.944;2023-04-27T13:46:16;100791.31;;;5.46;100.00
12676;BME280;63820;65.654;21.944;2023-04-27T13:49:00;100779.47;;;5.35;100.00
12676;BME280;63820;65.654;21.944;2023-04-27T13:51:44;100780.28;;;5.37;100.00
12676;BME280;63820;65.654;21.944;2023-04-27T13:54:28;100781.69;;;5.54;100.00
12676;BME280;63820;65.654;21.944;2023-04-27T13:57:13;100782.44;;;5.61;100.00
12676;BME280;63820;65.654;21.944;2023-04-27T13:59:57;100774.59;;;5.67;100.00
12676;BME280;63820;65.654;21.944;2023-04-27T14:02:45;100790.06;;;5.67;100.00
12676;BME280;63820;65.654;21.944;2023-04-27T14:05:29;100791.13;;;5.57;100.00
12676;BME280;63820;65.654;21.944;2023-04-27T14:08:14;100785.97;;;5.57;100.00
12676;BME280;63820;65.654;21.944;2023-04-27T14:10:58;100785.22;;;5.50;100.00
12676;BME280;63820;65.654;21.944;2023-04-27T14:13:43;100784.56;;;5.38;100.00
12676;BME280;63820;65.654;21.944;2023-04-27T14:16:27;100778.66;;;5.31;100.00